sensor_id;sensor_type;location;lat;lon;timestamp;temperature;humidity
3792;DHT22;1911;53.768;11.474;2023-06-24T00:02:09;15.10;99.90
3792;DHT22;1911;53.768;11.474;2023-06-24T00:04:35;15.00;99.90
3792;DHT22;1911;53.768;11.474;2023-06-24T00:07:01;15.00;99.90
3792;DHT22;1911;53.768;11.474;2023-06-24T00:09:29;15.00;99.90
3792;DHT22;1911;53.768;11.474;2023-06-24T00:11:56;15.00;99.90
3792;DHT22;1911;53.768;11.474;2023-06-24T00:14:22;15.00;99.90
3792;DHT22;1911;53.768;11.474;2023-06-24T00:16:55;14.90;99.90
3792;DHT22;1911;53.768;11.474;2023-06-24T00:19:25;14.90;99.90
3792;DHT22;1911;53.768;11.474;2023-06-24T00:21:52;14.90;99.90
3792;DHT22;1911;53.768;11.474;2023-06-24T00:24:19;14.80;99.90
3792;DHT22;1911;53.768;11.474;2023-06-24T00:26:51;14.90;99.90
3792;DHT22;1911;53.768;11.474;2023-06-24T00:29:18;14.90;99.90
3792;DHT22;1911;53.768;11.474;2023-06-24T00:31:44;14.80;99.90
3792;DHT22;1911;53.768;11.474;2023-06-24T00:34:09;14.70;99.90
3792;DHT22;1911;53.768;11.474;2023-06-24T00:36:35;14.70;99.90
3792;DHT22;1911;53.768;11.474;2023-06-24T00:39:02;14.60;99.90
3792;DHT22;1911;53.768;11.474;2023-06-24T00:41:29;14.60;99.90
3792;DHT22;1911;53.768;11.474;2023-06-24T00:43:56;14.50;99.90
3792;DHT22;1911;53.768;11.474;2023-06-24T00:46:25;14.50;99.90
3792;DHT22;1911;53.768;11.474;2023-06-24T00:48:52;14.50;99.90
3792;DHT22;1911;53.768;11.474;2023-06-24T00:51:19;14.40;99.90
3792;DHT22;1911;53.768;11.474;2023-06-24T00:53:47;14.40;99.90
3792;DHT22;1911;53.768;11.474;2023-06-24T00:56:14;14.40;99.90
3792;DHT22;1911;53.768;11.474;2023-06-24T00:58:42;14.30;99.90
3792;DHT22;1911;53.768;11.474;2023-06-24T01:01:09;14.30;99.90
3792;DHT22;1911;53.768;11.474;2023-06-24T01:03:36;14.40;99.90
3792;DHT22;1911;53.768;11.474;2023-06-24T01:06:03;14.40;99.90
3792;DHT22;1911;53.768;11.474;2023-06-24T01:08:28;14.40;99.90
3792;DHT22;1911;53.768;11.474;2023-06-24T01:10:54;14.40;99.90
3792;DHT22;1911;53.768;11.474;2023-06-24T01:13:20;14.40;99.90
3792;DHT22;1911;53.768;11.474;2023-06-24T01:15:46;14.30;99.90
3792;DHT22;1911;53.768;11.474;2023-06-24T01:21:03;14.30;99.90
3792;DHT22;1911;53.768;11.474;2023-06-24T01:26:11;14.30;99.90
3792;DHT22;1911;53.768;11.474;2023-06-24T01:34:20;14.30;99.90
3792;DHT22;1911;53.768;11.474;2023-06-24T01:37:03;14.30;99.90
3792;DHT22;1911;53.768;11.474;2023-06-24T01:39:34;14.30;99.90
3792;DHT22;1911;53.768;11.474;2023-06-24T01:42:08;14.30;99.90
3792;DHT22;1911;53.768;11.474;2023-06-24T01:44:37;14.30;99.90
3792;DHT22;1911;53.768;11.474;2023-06-24T01:47:06;14.20;99.90
3792;DHT22;1911;53.768;11.474;2023-06-24T01:49:33;14.20;99.90
3792;DHT22;1911;53.768;11.474;2023-06-24T01:52:03;14.10;99.90
3792;DHT22;1911;53.768;11.474;2023-06-24T01:54:31;14.10;99.90
3792;DHT22;1911;53.768;11.474;2023-06-24T01:56:59;14.10;99.90
3792;DHT22;1911;53.768;11.474;2023-06-24T01:59:27;14.10;99.90
3792;DHT22;1911;53.768;11.474;2023-06-24T02:01:54;14.10;99.90
3792;DHT22;1911;53.768;11.474;2023-06-24T02:04:22;14.10;99.90
3792;DHT22;1911;53.768;11.474;2023-06-24T02:06:50;14.10;99.90
3792;DHT22;1911;53.768;11.474;2023-06-24T02:09:17;14.10;99.90
3792;DHT22;1911;53.768;11.474;2023-06-24T02:11:44;14.10;99.90
3792;DHT22;1911;53.768;11.474;2023-06-24T02:14:11;14.10;99.90
3792;DHT22;1911;53.768;11.474;2023-06-24T02:16:38;14.10;99.90
3792;DHT22;1911;53.768;11.474;2023-06-24T02:19:06;14.10;99.90
3792;DHT22;1911;53.768;11.474;2023-06-24T02:21:34;14.10;99.90
3792;DHT22;1911;53.768;11.474;2023-06-24T02:24:01;14.00;99.90
3792;DHT22;1911;53.768;11.474;2023-06-24T02:26:28;14.00;99.90
3792;DHT22;1911;53.768;11.474;2023-06-24T02:28:54;14.00;99.90
3792;DHT22;1911;53.768;11.474;2023-06-24T02:31:21;14.00;99.90
3792;DHT22;1911;53.768;11.474;2023-06-24T02:33:46;14.00;99.90
3792;DHT22;1911;53.768;11.474;2023-06-24T02:36:12;13.90;99.90
3792;DHT22;1911;53.768;11.474;2023-06-24T02:38:38;14.00;99.90
3792;DHT22;1911;53.768;11.474;2023-06-24T02:41:03;14.00;99.90
3792;DHT22;1911;53.768;11.474;2023-06-24T02:43:30;14.00;99.90
3792;DHT22;1911;53.768;11.474;2023-06-24T02:45:57;13.90;99.90
3792;DHT22;1911;53.768;11.474;2023-06-24T02:48:23;13.90;99.90
3792;DHT22;1911;53.768;11.474;2023-06-24T02:50:50;13.80;99.90
3792;DHT22;1911;53.768;11.474;2023-06-24T02:53:16;13.90;99.90
3792;DHT22;1911;53.768;11.474;2023-06-24T02:55:42;13.80;99.90
3792;DHT22;1911;53.768;11.474;2023-06-24T02:58:09;13.80;99.90
3792;DHT22;1911;53.768;11.474;2023-06-24T03:00:37;13.70;99.90
3792;DHT22;1911;53.768;11.474;2023-06-24T03:03:04;13.70;99.90
3792;DHT22;1911;53.768;11.474;2023-06-24T03:05:30;13.60;99.90
3792;DHT22;1911;53.768;11.474;2023-06-24T03:07:58;13.60;99.90
3792;DHT22;1911;53.768;11.474;2023-06-24T03:10:25;13.50;99.90
3792;DHT22;1911;53.768;11.474;2023-06-24T03:12:51;13.50;99.90
3792;DHT22;1911;53.768;11.474;2023-06-24T03:15:17;13.50;99.90
3792;DHT22;1911;53.768;11.474;2023-06-24T03:17:43;13.50;99.90
3792;DHT22;1911;53.768;11.474;2023-06-24T03:20:09;13.50;99.90
3792;DHT22;1911;53.768;11.474;2023-06-24T03:22:35;13.50;99.90
3792;DHT22;1911;53.768;11.474;2023-06-24T03:25:01;13.40;99.90
3792;DHT22;1911;53.768;11.474;2023-06-24T03:27:27;13.50;99.90
3792;DHT22;1911;53.768;11.474;2023-06-24T03:29:53;13.50;99.90
3792;DHT22;1911;53.768;11.474;2023-06-24T03:32:18;13.50;99.90
3792;DHT22;1911;53.768;11.474;2023-06-24T03:34:44;13.50;99.90
3792;DHT22;1911;53.768;11.474;2023-06-24T03:37:10;13.50;99.90
3792;DHT22;1911;53.768;11.474;2023-06-24T03:39:35;13.50;99.90
3792;DHT22;1911;53.768;11.474;2023-06-24T03:42:01;13.60;99.90
3792;DHT22;1911;53.768;11.474;2023-06-24T03:44:27;13.60;99.90
3792;DHT22;1911;53.768;11.474;2023-06-24T03:46:53;13.60;99.90
3792;DHT22;1911;53.768;11.474;2023-06-24T03:49:18;13.70;99.90
3792;DHT22;1911;53.768;11.474;2023-06-24T03:51:44;13.70;99.90
3792;DHT22;1911;53.768;11.474;2023-06-24T03:54:10;13.70;99.90
3792;DHT22;1911;53.768;11.474;2023-06-24T03:56:36;13.70;99.90
3792;DHT22;1911;53.768;11.474;2023-06-24T03:59:01;13.70;99.90
3792;DHT22;1911;53.768;11.474;2023-06-24T04:01:27;13.70;99.90
3792;DHT22;1911;53.768;11.474;2023-06-24T04:03:57;13.80;99.90
3792;DHT22;1911;53.768;11.474;2023-06-24T04:06:23;13.80;99.90
3792;DHT22;1911;53.768;11.474;2023-06-24T04:08:48;13.80;99.90
3792;DHT22;1911;53.768;11.474;2023-06-24T04:11:16;13.90;99.90
3792;DHT22;1911;53.768;11.474;2023-06-24T04:13:42;13.90;99.90
3792;DHT22;1911;53.768;11.474;2023-06-24T04:16:07;13.90;99.90
3792;DHT22;1911;53.768;11.474;2023-06-24T04:18:33;14.00;99.90
3792;DHT22;1911;53.768;11.474;2023-06-24T04:20:59;14.00;99.90
3792;DHT22;1911;53.768;11.474;2023-06-24T04:23:25;14.10;99.90
3792;DHT22;1911;53.768;11.474;2023-06-24T04:25:50;14.10;99.90
3792;DHT22;1911;53.768;11.474;2023-06-24T04:28:16;14.20;99.90
3792;DHT22;1911;53.768;11.474;2023-06-24T04:30:42;14.20;99.90
3792;DHT22;1911;53.768;11.474;2023-06-24T04:33:07;14.30;99.90
3792;DHT22;1911;53.768;11.474;2023-06-24T04:35:33;14.30;99.90
3792;DHT22;1911;53.768;11.474;2023-06-24T04:37:59;14.40;99.90
3792;DHT22;1911;53.768;11.474;2023-06-24T04:40:24;14.50;99.90
3792;DHT22;1911;53.768;11.474;2023-06-24T04:42:50;14.50;99.90
3792;DHT22;1911;53.768;11.474;2023-06-24T04:45:16;14.60;99.90
3792;DHT22;1911;53.768;11.474;2023-06-24T04:47:42;14.60;99.90
3792;DHT22;1911;53.768;11.474;2023-06-24T04:50:08;14.70;99.90
3792;DHT22;1911;53.768;11.474;2023-06-24T04:52:36;14.80;99.90
3792;DHT22;1911;53.768;11.474;2023-06-24T04:55:02;14.80;99.90
3792;DHT22;1911;53.768;11.474;2023-06-24T04:57:32;14.90;99.90
3792;DHT22;1911;53.768;11.474;2023-06-24T04:59:58;15.00;99.90
3792;DHT22;1911;53.768;11.474;2023-06-24T05:02:24;15.10;99.90
3792;DHT22;1911;53.768;11.474;2023-06-24T05:04:51;15.20;99.90
3792;DHT22;1911;53.768;11.474;2023-06-24T05:07:17;15.30;99.90
3792;DHT22;1911;53.768;11.474;2023-06-24T05:09:44;15.40;99.90
3792;DHT22;1911;53.768;11.474;2023-06-24T05:12:10;15.50;99.90
3792;DHT22;1911;53.768;11.474;2023-06-24T05:14:36;15.50;99.90
3792;DHT22;1911;53.768;11.474;2023-06-24T05:17:03;15.60;99.90
3792;DHT22;1911;53.768;11.474;2023-06-24T05:19:29;15.90;99.90
3792;DHT22;1911;53.768;11.474;2023-06-24T05:21:55;16.00;99.90
3792;DHT22;1911;53.768;11.474;2023-06-24T05:24:21;16.30;99.90
3792;DHT22;1911;53.768;11.474;2023-06-24T05:26:49;16.50;99.90
3792;DHT22;1911;53.768;11.474;2023-06-24T05:29:16;16.80;99.90
3792;DHT22;1911;53.768;11.474;2023-06-24T05:31:42;16.80;99.90
3792;DHT22;1911;53.768;11.474;2023-06-24T05:34:07;17.40;99.90
3792;DHT22;1911;53.768;11.474;2023-06-24T05:36:33;18.40;99.90
3792;DHT22;1911;53.768;11.474;2023-06-24T05:38:59;19.70;99.90
3792;DHT22;1911;53.768;11.474;2023-06-24T05:41:25;20.70;99.90
3792;DHT22;1911;53.768;11.474;2023-06-24T05:44:07;22.00;97.30
3792;DHT22;1911;53.768;11.474;2023-06-24T05:46:33;23.00;1.00
3792;DHT22;1911;53.768;11.474;2023-06-24T05:48:59;22.70;99.90
3792;DHT22;1911;53.768;11.474;2023-06-24T05:51:25;22.10;1.00
3792;DHT22;1911;53.768;11.474;2023-06-24T05:53:50;23.00;1.00
3792;DHT22;1911;53.768;11.474;2023-06-24T05:56:16;23.40;99.90
3792;DHT22;1911;53.768;11.474;2023-06-24T05:58:42;22.30;20.60
3792;DHT22;1911;53.768;11.474;2023-06-24T06:01:09;20.80;99.90
3792;DHT22;1911;53.768;11.474;2023-06-24T06:03:48;21.10;99.90
3792;DHT22;1911;53.768;11.474;2023-06-24T06:06:13;22.10;85.30
3792;DHT22;1911;53.768;11.474;2023-06-24T06:08:39;22.50;1.00
3792;DHT22;1911;53.768;11.474;2023-06-24T06:11:05;22.90;1.00
3792;DHT22;1911;53.768;11.474;2023-06-24T06:13:31;23.10;1.00
3792;DHT22;1911;53.768;11.474;2023-06-24T06:15:57;23.20;1.00
3792;DHT22;1911;53.768;11.474;2023-06-24T06:18:23;23.70;1.00
3792;DHT22;1911;53.768;11.474;2023-06-24T06:20:49;24.60;1.00
3792;DHT22;1911;53.768;11.474;2023-06-24T06:23:15;25.00;1.00
3792;DHT22;1911;53.768;11.474;2023-06-24T06:25:41;25.10;1.00
3792;DHT22;1911;53.768;11.474;2023-06-24T06:28:07;26.20;1.00
3792;DHT22;1911;53.768;11.474;2023-06-24T06:30:32;26.70;1.00
3792;DHT22;1911;53.768;11.474;2023-06-24T06:32:58;26.20;1.00
3792;DHT22;1911;53.768;11.474;2023-06-24T06:35:24;26.10;99.90
3792;DHT22;1911;53.768;11.474;2023-06-24T06:37:49;25.10;99.90
3792;DHT22;1911;53.768;11.474;2023-06-24T06:40:22;24.60;99.90
3792;DHT22;1911;53.768;11.474;2023-06-24T06:42:48;25.10;99.90
3792;DHT22;1911;53.768;11.474;2023-06-24T06:45:14;24.80;99.90
3792;DHT22;1911;53.768;11.474;2023-06-24T06:47:40;23.60;99.90
3792;DHT22;1911;53.768;11.474;2023-06-24T06:50:06;24.10;99.90
3792;DHT22;1911;53.768;11.474;2023-06-24T06:52:33;24.10;99.90
3792;DHT22;1911;53.768;11.474;2023-06-24T06:54:59;23.70;99.90
3792;DHT22;1911;53.768;11.474;2023-06-24T06:57:24;22.90;99.90
3792;DHT22;1911;53.768;11.474;2023-06-24T06:59:51;22.70;99.90
3792;DHT22;1911;53.768;11.474;2023-06-24T07:02:17;22.50;99.90
3792;DHT22;1911;53.768;11.474;2023-06-24T07:04:43;22.40;99.90
3792;DHT22;1911;53.768;11.474;2023-06-24T07:07:09;22.90;99.90
3792;DHT22;1911;53.768;11.474;2023-06-24T07:09:35;23.40;99.90
3792;DHT22;1911;53.768;11.474;2023-06-24T07:12:01;23.60;99.90
3792;DHT22;1911;53.768;11.474;2023-06-24T07:14:27;23.20;99.90
3792;DHT22;1911;53.768;11.474;2023-06-24T07:16:53;23.10;99.90
3792;DHT22;1911;53.768;11.474;2023-06-24T07:19:18;23.70;99.90
3792;DHT22;1911;53.768;11.474;2023-06-24T07:21:44;25.40;99.90
3792;DHT22;1911;53.768;11.474;2023-06-24T07:24:10;26.50;99.90
3792;DHT22;1911;53.768;11.474;2023-06-24T07:26:35;26.90;99.90
3792;DHT22;1911;53.768;11.474;2023-06-24T07:29:01;26.90;99.90
3792;DHT22;1911;53.768;11.474;2023-06-24T07:31:27;27.00;99.90
3792;DHT22;1911;53.768;11.474;2023-06-24T07:33:53;28.00;99.90
3792;DHT22;1911;53.768;11.474;2023-06-24T07:36:18;28.50;99.90
3792;DHT22;1911;53.768;11.474;2023-06-24T07:38:45;29.50;99.90
3792;DHT22;1911;53.768;11.474;2023-06-24T07:41:10;28.70;99.90
3792;DHT22;1911;53.768;11.474;2023-06-24T07:43:36;27.60;99.90
3792;DHT22;1911;53.768;11.474;2023-06-24T07:46:02;26.50;99.90
3792;DHT22;1911;53.768;11.474;2023-06-24T07:48:27;26.20;99.90
3792;DHT22;1911;53.768;11.474;2023-06-24T07:50:53;26.70;99.90
3792;DHT22;1911;53.768;11.474;2023-06-24T07:53:19;27.70;99.90
3792;DHT22;1911;53.768;11.474;2023-06-24T07:55:44;27.60;99.90
3792;DHT22;1911;53.768;11.474;2023-06-24T07:58:10;27.90;99.90
3792;DHT22;1911;53.768;11.474;2023-06-24T08:00:36;27.20;99.90
3792;DHT22;1911;53.768;11.474;2023-06-24T08:03:03;27.20;99.90
3792;DHT22;1911;53.768;11.474;2023-06-24T08:05:29;28.20;99.90
3792;DHT22;1911;53.768;11.474;2023-06-24T08:07:55;27.70;99.90
3792;DHT22;1911;53.768;11.474;2023-06-24T08:10:21;25.90;99.90
3792;DHT22;1911;53.768;11.474;2023-06-24T08:12:49;25.90;99.90
3792;DHT22;1911;53.768;11.474;2023-06-24T08:15:15;26.80;99.90
3792;DHT22;1911;53.768;11.474;2023-06-24T08:17:41;26.80;99.90
3792;DHT22;1911;53.768;11.474;2023-06-24T08:20:06;27.00;99.90
3792;DHT22;1911;53.768;11.474;2023-06-24T08:22:32;27.10;99.90
3792;DHT22;1911;53.768;11.474;2023-06-24T08:24:58;27.50;99.90
3792;DHT22;1911;53.768;11.474;2023-06-24T08:27:24;27.70;99.90
3792;DHT22;1911;53.768;11.474;2023-06-24T08:29:50;26.50;99.90
3792;DHT22;1911;53.768;11.474;2023-06-24T08:32:15;25.70;99.90
3792;DHT22;1911;53.768;11.474;2023-06-24T08:34:41;26.10;99.90
3792;DHT22;1911;53.768;11.474;2023-06-24T08:37:07;26.40;99.90
3792;DHT22;1911;53.768;11.474;2023-06-24T08:39:33;25.70;99.90
3792;DHT22;1911;53.768;11.474;2023-06-24T08:41:59;25.90;99.90
3792;DHT22;1911;53.768;11.474;2023-06-24T08:44:24;26.70;99.90
3792;DHT22;1911;53.768;11.474;2023-06-24T08:46:50;27.30;99.90
3792;DHT22;1911;53.768;11.474;2023-06-24T08:49:41;26.00;99.90
3792;DHT22;1911;53.768;11.474;2023-06-24T08:52:13;26.20;99.90
3792;DHT22;1911;53.768;11.474;2023-06-24T08:54:41;26.30;99.90
3792;DHT22;1911;53.768;11.474;2023-06-24T08:57:07;26.10;99.90
3792;DHT22;1911;53.768;11.474;2023-06-24T08:59:34;24.70;42.40
3792;DHT22;1911;53.768;11.474;2023-06-24T09:02:00;24.70;99.90
3792;DHT22;1911;53.768;11.474;2023-06-24T09:04:26;25.20;99.90
3792;DHT22;1911;53.768;11.474;2023-06-24T09:06:52;24.50;86.30
3792;DHT22;1911;53.768;11.474;2023-06-24T09:09:19;24.40;70.70
3792;DHT22;1911;53.768;11.474;2023-06-24T09:11:56;24.30;91.30
3792;DHT22;1911;53.768;11.474;2023-06-24T09:14:22;23.90;42.30
3792;DHT22;1911;53.768;11.474;2023-06-24T09:16:57;24.20;99.90
3792;DHT22;1911;53.768;11.474;2023-06-24T09:19:24;24.50;99.90
3792;DHT22;1911;53.768;11.474;2023-06-24T09:21:53;24.40;99.90
3792;DHT22;1911;53.768;11.474;2023-06-24T09:24:19;24.20;58.40
3792;DHT22;1911;53.768;11.474;2023-06-24T09:26:45;23.90;45.60
3792;DHT22;1911;53.768;11.474;2023-06-24T09:29:14;24.00;55.80
3792;DHT22;1911;53.768;11.474;2023-06-24T09:31:49;24.10;58.60
3792;DHT22;1911;53.768;11.474;2023-06-24T09:34:19;24.60;99.90
3792;DHT22;1911;53.768;11.474;2023-06-24T09:36:45;24.50;78.50
3792;DHT22;1911;53.768;11.474;2023-06-24T09:39:16;23.80;20.00
3792;DHT22;1911;53.768;11.474;2023-06-24T09:41:42;23.70;39.50
3792;DHT22;1911;53.768;11.474;2023-06-24T09:44:10;23.50;6.10
3792;DHT22;1911;53.768;11.474;2023-06-24T09:46:37;23.50;10.20
3792;DHT22;1911;53.768;11.474;2023-06-24T09:49:04;23.80;29.40
3792;DHT22;1911;53.768;11.474;2023-06-24T09:51:33;24.20;99.90
3792;DHT22;1911;53.768;11.474;2023-06-24T09:54:05;24.60;99.90
3792;DHT22;1911;53.768;11.474;2023-06-24T09:56:32;24.30;91.80
3792;DHT22;1911;53.768;11.474;2023-06-24T09:58:58;23.90;10.60
3792;DHT22;1911;53.768;11.474;2023-06-24T10:01:24;23.90;13.00
3792;DHT22;1911;53.768;11.474;2023-06-24T10:03:50;24.20;41.50
3792;DHT22;1911;53.768;11.474;2023-06-24T10:06:16;24.30;27.20
3792;DHT22;1911;53.768;11.474;2023-06-24T10:08:42;24.20;3.50
3792;DHT22;1911;53.768;11.474;2023-06-24T10:11:08;24.40;9.60
3792;DHT22;1911;53.768;11.474;2023-06-24T10:13:34;24.60;6.80
3792;DHT22;1911;53.768;11.474;2023-06-24T10:16:00;24.40;1.00
3792;DHT22;1911;53.768;11.474;2023-06-24T10:18:36;24.20;1.00
3792;DHT22;1911;53.768;11.474;2023-06-24T10:21:08;24.20;1.00
3792;DHT22;1911;53.768;11.474;2023-06-24T10:26:26;25.20;62.20
3792;DHT22;1911;53.768;11.474;2023-06-24T10:31:52;24.70;1.00
3792;DHT22;1911;53.768;11.474;2023-06-24T10:42:33;25.50;14.80
3792;DHT22;1911;53.768;11.474;2023-06-24T10:47:37;25.00;1.00
3792;DHT22;1911;53.768;11.474;2023-06-24T10:50:04;25.00;1.00
3792;DHT22;1911;53.768;11.474;2023-06-24T10:52:30;25.20;1.00
3792;DHT22;1911;53.768;11.474;2023-06-24T10:54:59;25.90;33.80
3792;DHT22;1911;53.768;11.474;2023-06-24T10:57:27;25.90;15.60
3792;DHT22;1911;53.768;11.474;2023-06-24T10:59:55;25.80;1.00
3792;DHT22;1911;53.768;11.474;2023-06-24T11:02:25;25.50;1.00
3792;DHT22;1911;53.768;11.474;2023-06-24T11:05:01;25.60;1.00
3792;DHT22;1911;53.768;11.474;2023-06-24T11:07:29;25.90;1.00
3792;DHT22;1911;53.768;11.474;2023-06-24T11:10:02;25.80;1.00
3792;DHT22;1911;53.768;11.474;2023-06-24T11:12:31;26.00;1.00
3792;DHT22;1911;53.768;11.474;2023-06-24T11:14:58;26.00;1.00
3792;DHT22;1911;53.768;11.474;2023-06-24T11:17:25;26.60;37.20
3792;DHT22;1911;53.768;11.474;2023-06-24T11:19:55;26.30;1.00
3792;DHT22;1911;53.768;11.474;2023-06-24T11:22:22;26.00;1.00
3792;DHT22;1911;53.768;11.474;2023-06-24T11:24:48;25.80;1.00
3792;DHT22;1911;53.768;11.474;2023-06-24T11:27:14;25.80;1.00
3792;DHT22;1911;53.768;11.474;2023-06-24T11:29:39;25.80;1.00
3792;DHT22;1911;53.768;11.474;2023-06-24T11:32:08;25.70;1.00
3792;DHT22;1911;53.768;11.474;2023-06-24T11:34:35;25.70;1.00
3792;DHT22;1911;53.768;11.474;2023-06-24T11:37:16;25.80;1.00
3792;DHT22;1911;53.768;11.474;2023-06-24T11:39:43;26.00;1.00
3792;DHT22;1911;53.768;11.474;2023-06-24T11:42:10;25.90;1.00
3792;DHT22;1911;53.768;11.474;2023-06-24T11:44:40;25.90;1.00
3792;DHT22;1911;53.768;11.474;2023-06-24T11:47:08;26.60;1.00
3792;DHT22;1911;53.768;11.474;2023-06-24T11:49:55;27.00;2.60
3792;DHT22;1911;53.768;11.474;2023-06-24T11:52:42;26.70;1.00
3792;DHT22;1911;53.768;11.474;2023-06-24T11:55:19;26.30;1.00
3792;DHT22;1911;53.768;11.474;2023-06-24T11:57:55;26.20;1.00
3792;DHT22;1911;53.768;11.474;2023-06-24T12:00:26;26.40;1.00
3792;DHT22;1911;53.768;11.474;2023-06-24T12:02:54;26.80;18.10
3792;DHT22;1911;53.768;11.474;2023-06-24T12:05:27;26.80;12.20
3792;DHT22;1911;53.768;11.474;2023-06-24T12:08:04;27.20;50.10
3792;DHT22;1911;53.768;11.474;2023-06-24T12:10:30;27.20;62.60
3792;DHT22;1911;53.768;11.474;2023-06-24T12:12:59;27.20;44.10
3792;DHT22;1911;53.768;11.474;2023-06-24T12:15:26;27.40;91.60
3792;DHT22;1911;53.768;11.474;2023-06-24T12:17:52;27.80;99.90
3792;DHT22;1911;53.768;11.474;2023-06-24T12:20:18;27.70;19.30
3792;DHT22;1911;53.768;11.474;2023-06-24T12:22:45;27.20;11.50
3792;DHT22;1911;53.768;11.474;2023-06-24T12:25:11;27.40;26.70
3792;DHT22;1911;53.768;11.474;2023-06-24T12:27:38;26.80;1.00
3792;DHT22;1911;53.768;11.474;2023-06-24T12:30:04;26.90;1.70
3792;DHT22;1911;53.768;11.474;2023-06-24T12:32:30;26.70;1.00
3792;DHT22;1911;53.768;11.474;2023-06-24T12:34:56;26.20;1.00
3792;DHT22;1911;53.768;11.474;2023-06-24T12:37:22;26.00;1.00
3792;DHT22;1911;53.768;11.474;2023-06-24T12:39:48;25.70;1.00
3792;DHT22;1911;53.768;11.474;2023-06-24T12:42:16;25.40;1.00
3792;DHT22;1911;53.768;11.474;2023-06-24T12:44:42;25.60;1.00
3792;DHT22;1911;53.768;11.474;2023-06-24T12:47:08;25.50;1.00
3792;DHT22;1911;53.768;11.474;2023-06-24T12:49:33;25.50;1.00
3792;DHT22;1911;53.768;11.474;2023-06-24T12:51:59;25.20;1.00
3792;DHT22;1911;53.768;11.474;2023-06-24T12:54:24;25.00;1.00
3792;DHT22;1911;53.768;11.474;2023-06-24T12:56:50;25.30;1.00
3792;DHT22;1911;53.768;11.474;2023-06-24T12:59:16;25.70;59.20
3792;DHT22;1911;53.768;11.474;2023-06-24T13:01:42;25.70;87.70
3792;DHT22;1911;53.768;11.474;2023-06-24T13:04:10;25.70;93.00
3792;DHT22;1911;53.768;11.474;2023-06-24T13:06:36;25.20;93.40
3792;DHT22;1911;53.768;11.474;2023-06-24T13:09:02;24.80;1.00
3792;DHT22;1911;53.768;11.474;2023-06-24T13:11:28;24.50;1.00
3792;DHT22;1911;53.768;11.474;2023-06-24T13:13:54;24.20;1.00
3792;DHT22;1911;53.768;11.474;2023-06-24T13:16:21;24.20;1.00
3792;DHT22;1911;53.768;11.474;2023-06-24T13:20:01;24.40;1.00
3792;DHT22;1911;53.768;11.474;2023-06-24T13:36:54;25.30;1.00
3792;DHT22;1911;53.768;11.474;2023-06-24T13:39:20;25.40;1.00
3792;DHT22;1911;53.768;11.474;2023-06-24T13:41:49;25.20;1.00
3792;DHT22;1911;53.768;11.474;2023-06-24T13:44:17;25.00;1.00
3792;DHT22;1911;53.768;11.474;2023-06-24T13:46:44;24.70;1.00
3792;DHT22;1911;53.768;11.474;2023-06-24T13:49:11;24.60;1.00
3792;DHT22;1911;53.768;11.474;2023-06-24T13:51:39;24.50;1.00
3792;DHT22;1911;53.768;11.474;2023-06-24T13:54:05;24.50;1.00
3792;DHT22;1911;53.768;11.474;2023-06-24T13:56:31;24.60;1.00
3792;DHT22;1911;53.768;11.474;2023-06-24T13:58:57;24.60;1.00
3792;DHT22;1911;53.768;11.474;2023-06-24T14:01:23;24.60;1.00
3792;DHT22;1911;53.768;11.474;2023-06-24T14:03:49;24.70;1.00
3792;DHT22;1911;53.768;11.474;2023-06-24T14:06:16;24.60;1.00
3792;DHT22;1911;53.768;11.474;2023-06-24T14:08:43;24.60;1.00
3792;DHT22;1911;53.768;11.474;2023-06-24T14:11:09;24.50;1.00
3792;DHT22;1911;53.768;11.474;2023-06-24T14:13:35;24.50;1.00
3792;DHT22;1911;53.768;11.474;2023-06-24T14:16:02;24.60;1.00
3792;DHT22;1911;53.768;11.474;2023-06-24T14:18:28;24.80;1.00
3792;DHT22;1911;53.768;11.474;2023-06-24T14:20:57;25.00;1.00
3792;DHT22;1911;53.768;11.474;2023-06-24T14:23:23;25.10;1.00
3792;DHT22;1911;53.768;11.474;2023-06-24T14:25:51;25.10;1.00
3792;DHT22;1911;53.768;11.474;2023-06-24T14:28:17;25.30;1.00
3792;DHT22;1911;53.768;11.474;2023-06-24T14:30:43;25.50;1.00
3792;DHT22;1911;53.768;11.474;2023-06-24T14:33:08;25.50;1.00
3792;DHT22;1911;53.768;11.474;2023-06-24T14:35:34;25.60;1.00
3792;DHT22;1911;53.768;11.474;2023-06-24T14:38:00;25.60;1.00
3792;DHT22;1911;53.768;11.474;2023-06-24T14:40:26;25.50;1.00
3792;DHT22;1911;53.768;11.474;2023-06-24T14:42:51;25.30;1.00
3792;DHT22;1911;53.768;11.474;2023-06-24T14:45:17;25.30;1.00
3792;DHT22;1911;53.768;11.474;2023-06-24T14:47:43;25.30;1.00
3792;DHT22;1911;53.768;11.474;2023-06-24T14:50:10;25.20;1.00
3792;DHT22;1911;53.768;11.474;2023-06-24T14:52:35;25.10;1.00
3792;DHT22;1911;53.768;11.474;2023-06-24T14:55:01;24.90;1.00
3792;DHT22;1911;53.768;11.474;2023-06-24T14:57:27;24.90;1.00
3792;DHT22;1911;53.768;11.474;2023-06-24T14:59:52;24.90;1.00
3792;DHT22;1911;53.768;11.474;2023-06-24T15:02:18;24.90;21.40
3792;DHT22;1911;53.768;11.474;2023-06-24T15:04:44;24.60;1.00
3792;DHT22;1911;53.768;11.474;2023-06-24T15:07:10;24.50;1.00
3792;DHT22;1911;53.768;11.474;2023-06-24T15:09:35;24.50;1.00
3792;DHT22;1911;53.768;11.474;2023-06-24T15:12:02;24.50;14.90
3792;DHT22;1911;53.768;11.474;2023-06-24T15:14:28;24.60;38.80
3792;DHT22;1911;53.768;11.474;2023-06-24T15:16:53;24.80;9.80
3792;DHT22;1911;53.768;11.474;2023-06-24T15:19:23;25.00;39.20
3792;DHT22;1911;53.768;11.474;2023-06-24T15:21:49;25.20;99.60
3792;DHT22;1911;53.768;11.474;2023-06-24T15:24:14;25.30;94.80
3792;DHT22;1911;53.768;11.474;2023-06-24T15:26:40;25.50;99.90
3792;DHT22;1911;53.768;11.474;2023-06-24T15:29:06;25.30;37.40
3792;DHT22;1911;53.768;11.474;2023-06-24T15:31:31;25.40;21.60
3792;DHT22;1911;53.768;11.474;2023-06-24T15:33:57;25.30;23.80
3792;DHT22;1911;53.768;11.474;2023-06-24T15:36:23;25.30;95.30
3792;DHT22;1911;53.768;11.474;2023-06-24T15:38:52;25.50;99.90
3792;DHT22;1911;53.768;11.474;2023-06-24T15:41:18;25.70;99.90
3792;DHT22;1911;53.768;11.474;2023-06-24T15:43:44;25.80;99.90
3792;DHT22;1911;53.768;11.474;2023-06-24T15:46:10;25.80;97.40
3792;DHT22;1911;53.768;11.474;2023-06-24T15:48:35;26.00;84.80
3792;DHT22;1911;53.768;11.474;2023-06-24T15:51:04;25.80;88.80
3792;DHT22;1911;53.768;11.474;2023-06-24T15:53:30;25.90;99.90
3792;DHT22;1911;53.768;11.474;2023-06-24T15:55:56;25.90;99.90
3792;DHT22;1911;53.768;11.474;2023-06-24T15:58:22;25.80;99.90
3792;DHT22;1911;53.768;11.474;2023-06-24T16:00:47;25.80;99.90
3792;DHT22;1911;53.768;11.474;2023-06-24T16:03:13;25.80;99.90
3792;DHT22;1911;53.768;11.474;2023-06-24T16:05:38;25.70;85.10
3792;DHT22;1911;53.768;11.474;2023-06-24T16:08:04;25.80;99.90
3792;DHT22;1911;53.768;11.474;2023-06-24T16:10:30;25.80;99.90
3792;DHT22;1911;53.768;11.474;2023-06-24T16:12:56;25.50;99.40
3792;DHT22;1911;53.768;11.474;2023-06-24T16:15:22;25.20;99.90
3792;DHT22;1911;53.768;11.474;2023-06-24T16:17:48;25.20;99.90
3792;DHT22;1911;53.768;11.474;2023-06-24T16:20:14;25.20;93.10
3792;DHT22;1911;53.768;11.474;2023-06-24T16:22:42;25.20;94.00
3792;DHT22;1911;53.768;11.474;2023-06-24T16:25:08;25.20;99.90
3792;DHT22;1911;53.768;11.474;2023-06-24T16:27:34;25.20;99.90
3792;DHT22;1911;53.768;11.474;2023-06-24T16:30:00;25.10;99.90
3792;DHT22;1911;53.768;11.474;2023-06-24T16:32:25;25.00;99.90